Time;durP1;ratioP1;P1;durP2;ratioP2;P2;SDS_P1;SDS_P2;PMS_P1;PMS_P2;Temp;Humidity;BMP_temperature;BMP_pressure;BME280_temperature;BME280_humidity;BME280_pressure;Samples;Min_cycle;Max_cycle;Signal;HPM_P1;HPM_P2
2021/12/21 00:02:10;;;;;;;15.70;7.00;;;3.50;84.00;;;3.84;58.08;99508.13;4893092;28;118066;-87
2021/12/21 00:04:58;;;;;;;12.30;6.17;;;3.40;84.10;;;3.80;58.77;99501.50;4875203;28;123958;-88
2021/12/21 00:07:46;;;;;;;12.07;6.47;;;3.40;84.30;;;3.78;58.66;99506.38;4868480;28;123673;-86
2021/12/21 00:10:16;;;;;;;14.90;6.60;;;3.40;84.40;;;3.76;58.95;99501.16;4866844;28;118487;-87
2021/12/21 00:13:10;;;;;;;14.33;7.23;;;3.40;84.50;;;3.76;58.36;99494.84;4887887;28;118869;-88
2021/12/21 00:25:56;;;;;;;13.77;6.40;;;3.30;84.30;;;3.65;58.52;99493.06;4893754;28;119405;-88
2021/12/21 00:31:12;;;;;;;15.17;7.40;;;3.20;84.40;;;3.54;59.07;99481.97;4876458;28;123343;-87
2021/12/21 00:33:41;;;;;;;12.90;6.37;;;3.20;84.50;;;3.52;58.68;99488.78;4887997;28;119586;-88
2021/12/21 00:36:10;;;;;;;10.33;5.60;;;3.10;84.50;;;3.51;58.88;99489.84;4875987;28;118929;-88
2021/12/21 00:38:40;;;;;;;11.47;5.90;;;3.10;84.60;;;3.50;58.61;99483.56;4893017;28;123961;-88
2021/12/21 00:41:27;;;;;;;11.73;6.23;;;3.10;84.60;;;3.50;59.00;99474.53;4888543;28;123886;-87
2021/12/21 00:43:53;;;;;;;9.23;5.53;;;3.00;84.60;;;3.43;59.07;99485.63;4871149;28;119249;-88
2021/12/21 00:46:40;;;;;;;14.40;7.00;;;3.00;84.60;;;3.47;59.00;99475.03;4890408;28;118673;-87
2021/12/21 00:49:16;;;;;;;11.77;6.53;;;3.00;84.70;;;3.43;58.97;99471.94;4886150;28;123061;-87
2021/12/21 00:51:46;;;;;;;10.93;5.63;;;3.00;84.70;;;3.40;59.10;99461.53;4878372;28;121639;-86
2021/12/21 00:54:14;;;;;;;9.93;5.30;;;3.00;84.70;;;3.39;59.09;99462.63;4857764;28;119408;-88
2021/12/21 00:56:41;;;;;;;13.23;6.10;;;3.00;85.40;;;3.41;58.89;99465.09;4873449;28;119417;-88
2021/12/21 00:59:08;;;;;;;12.43;6.53;;;2.90;84.70;;;3.38;58.91;99460.94;4890836;28;123531;-88
2021/12/21 01:01:36;;;;;;;13.27;6.27;;;2.90;84.70;;;3.35;58.92;99466.09;4868513;28;123429;-87
2021/12/21 01:04:07;;;;;;;10.87;5.60;;;2.90;84.80;;;3.33;59.16;99463.59;4866961;28;118747;-88
2021/12/21 01:11:44;;;;;;;9.03;5.43;;;2.90;85.00;;;3.35;58.98;99466.09;4890076;28;123222;-85
2021/12/21 01:19:38;;;;;;;11.13;5.47;;;2.90;85.00;;;3.36;59.08;99454.94;4893604;28;123580;-87
2021/12/21 01:22:23;;;;;;;10.30;4.77;;;3.20;85.20;;;3.37;59.02;99459.31;4886101;28;123910;-85
2021/12/21 01:27:59;;;;;;;10.30;6.00;;;2.90;84.90;;;3.34;59.02;99451.59;4877097;28;119605;-81
2021/12/21 01:30:46;;;;;;;13.10;6.83;;;2.90;84.70;;;3.29;58.88;99454.25;4888889;28;122516;-83
2021/12/21 01:36:39;;;;;;;11.00;5.70;;;2.90;84.90;;;3.29;59.29;99446.88;4897673;28;119365;-80
2021/12/21 01:39:17;;;;;;;9.23;5.43;;;2.80;84.80;;;3.30;58.96;99445.84;4867669;28;118921;-87
2021/12/21 01:42:38;;;;;;;9.70;4.63;;;2.90;84.90;;;3.32;58.80;99451.03;4887891;28;124685;-87
2021/12/21 01:50:23;;;;;;;12.40;5.67;;;2.90;84.90;;;3.30;58.99;99458.63;4880379;28;119883;-87
2021/12/21 01:52:52;;;;;;;11.10;4.93;;;2.90;84.90;;;3.33;59.10;99452.66;4878073;28;121948;-87
2021/12/21 01:55:18;;;;;;;11.30;5.10;;;2.90;84.90;;;3.34;58.94;99453.53;4892222;28;122978;-86
2021/12/21 01:58:04;;;;;;;13.37;5.20;;;2.90;84.90;;;3.36;58.94;99454.94;4881297;28;118176;-87
2021/12/21 02:00:31;;;;;;;9.07;5.40;;;2.60;84.60;;;3.34;59.31;99454.34;4882640;28;118971;-86
2021/12/21 02:03:02;;;;;;;9.90;5.47;;;2.90;84.90;;;3.35;58.72;99449.69;4874356;28;124315;-85
2021/12/21 02:05:29;;;;;;;9.50;5.73;;;2.90;84.80;;;3.35;58.71;99449.69;4880110;28;123007;-87
2021/12/21 02:07:55;;;;;;;10.77;5.60;;;2.90;85.40;;;3.36;59.12;99445.88;4872429;28;119321;-87
2021/12/21 02:10:40;;;;;;;10.73;5.80;;;2.90;84.80;;;3.39;59.16;99450.88;4884829;28;119965;-87
2021/12/21 02:13:32;;;;;;;8.73;5.63;;;2.90;84.80;;;3.39;58.84;99442.69;4886695;28;124044;-86
2021/12/21 02:17:27;;;;;;;8.90;5.47;;;2.90;84.80;;;3.39;58.60;99450.88;4890688;28;124057;-86
2021/12/21 02:20:17;;;;;;;13.30;4.80;;;2.90;84.80;;;3.33;58.67;99441.75;4888910;28;118337;-87
2021/12/21 02:22:50;;;;;;;8.80;4.87;;;2.90;84.70;;;3.28;58.88;99438.97;4867126;28;118549;-87
2021/12/21 02:28:33;;;;;;;10.30;6.03;;;2.80;84.50;;;3.24;58.67;99437.78;4880062;28;123920;-88
2021/12/21 02:30:59;;;;;;;16.63;5.40;;;2.80;84.40;;;3.17;58.68;99439.84;4881669;28;118057;-87
2021/12/21 02:33:26;;;;;;;9.63;5.30;;;3.60;85.10;;;3.15;58.70;99434.66;4864756;28;118217;-87
2021/12/21 02:36:12;;;;;;;13.00;5.70;;;2.70;84.40;;;3.15;58.83;99434.66;4879032;28;123392;-87
2021/12/21 02:38:39;;;;;;;10.13;5.37;;;2.70;84.50;;;3.12;58.61;99437.03;4894249;28;123924;-87
2021/12/21 02:41:08;;;;;;;9.00;4.67;;;2.70;84.50;;;3.12;58.67;99431.56;4885387;28;119041;-88
2021/12/21 02:43:37;;;;;;;9.33;4.40;;;2.70;84.50;;;3.13;59.04;99435.97;4879283;28;119201;-87
2021/12/21 02:46:24;;;;;;;7.93;4.70;;;2.70;84.60;;;3.19;58.56;99432.25;4893541;28;122900;-87
2021/12/21 02:48:53;;;;;;;7.70;4.70;;;2.70;84.50;;;3.17;58.77;99437.13;4891723;28;124308;-87
2021/12/21 02:51:23;;;;;;;8.63;4.63;;;2.70;84.50;;;3.18;58.63;99441.53;4871822;28;119434;-87
2021/12/21 02:53:51;;;;;;;10.70;4.53;;;2.70;84.50;;;3.17;58.50;99437.13;4888804;28;117699;-86
2021/12/21 02:56:37;;;;;;;10.57;5.30;;;2.70;84.40;;;3.22;58.55;99434.47;4890993;28;122977;-87
2021/12/21 02:59:04;;;;;;;10.10;5.30;;;2.70;84.30;;;3.18;58.55;99436.06;4893004;28;123865;-87
2021/12/21 03:02:10;;;;;;;10.50;4.30;;;2.70;84.30;;;3.20;58.51;99432.00;4875299;28;118893;-88
2021/12/21 03:04:43;;;;;;;8.13;4.60;;;2.70;84.30;;;3.16;58.55;99425.38;4887815;28;117750;-88
2021/12/21 03:09:39;;;;;;;9.57;4.70;;;2.70;84.20;;;3.13;58.65;99438.72;4878155;28;124128;-87
2021/12/21 03:12:28;;;;;;;12.70;5.03;;;2.70;84.20;;;3.14;58.11;99440.34;4891989;28;118562;-87
2021/12/21 03:14:57;;;;;;;8.67;4.60;;;2.70;84.20;;;3.12;58.35;99437.03;4891917;28;118840;-86
2021/12/21 03:17:24;;;;;;;7.87;4.40;;;2.60;84.10;;;3.11;58.38;99441.66;4873341;28;123210;-87
2021/12/21 03:20:10;;;;;;;11.63;5.67;;;2.60;84.10;;;3.09;58.32;99431.00;4879991;28;123086;-86
2021/12/21 03:22:37;;;;;;;7.17;5.10;;;2.60;84.00;;;3.00;58.23;99432.47;4891898;28;118595;-87
2021/12/21 03:25:59;;;;;;;8.67;5.57;;;2.60;84.00;;;3.03;58.41;99436.63;4861116;28;119056;-87
2021/12/21 03:28:46;;;;;;;12.03;5.30;;;2.50;84.00;;;2.97;58.38;99432.97;4871985;28;123160;-87
2021/12/21 03:31:32;;;;;;;8.50;4.57;;;2.50;84.00;;;2.96;58.54;99435.97;4868377;28;122894;-88
2021/12/21 03:38:02;;;;;;;9.07;5.00;;;2.50;84.10;;;2.91;58.47;99436.72;4880111;28;119693;-87
2021/12/21 03:41:12;;;;;;;10.63;4.87;;;2.50;84.00;;;2.90;58.38;99428.75;4873675;28;124005;-87
2021/12/21 03:43:38;;;;;;;8.03;5.00;;;2.50;84.00;;;2.85;58.62;99434.97;4878303;28;122947;-88
2021/12/21 03:46:49;;;;;;;10.57;5.20;;;2.40;83.90;;;2.89;58.63;99433.38;4890052;28;118510;-87
2021/12/21 03:49:56;;;;;;;9.30;5.40;;;2.40;83.90;;;2.84;58.59;99427.84;4886133;28;119202;-87
2021/12/21 03:52:43;;;;;;;11.73;5.50;;;2.40;84.00;;;2.82;58.66;99425.38;4858591;28;123977;-88
2021/12/21 03:55:10;;;;;;;7.40;4.67;;;2.40;84.00;;;2.79;58.57;99427.75;4887832;28;122953;-87
2021/12/21 03:57:37;;;;;;;9.50;4.93;;;2.50;84.20;;;2.80;58.48;99426.69;4887283;28;119550;-87
2021/12/21 04:00:14;;;;;;;10.37;5.50;;;2.40;84.10;;;2.82;58.33;99424.53;4858120;28;118960;-87
2021/12/21 04:02:43;;;;;;;9.30;5.17;;;2.40;84.10;;;2.81;58.35;99431.06;4836600;29;123323;-87
2021/12/21 04:05:10;;;;;;;9.60;4.60;;;2.40;84.10;;;2.81;58.54;99429.16;4863574;28;123029;-88
2021/12/21 04:07:37;;;;;;;11.70;4.93;;;2.40;84.10;;;2.83;58.58;99427.03;4866427;28;118307;-86
2021/12/21 04:10:05;;;;;;;9.97;4.23;;;2.40;84.10;;;2.84;58.37;99425.94;4872644;28;118040;-87
2021/12/21 04:12:50;;;;;;;11.20;4.80;;;2.40;84.10;;;2.88;58.74;99434.47;4857969;28;123314;-87
2021/12/21 04:15:18;;;;;;;10.33;4.93;;;2.40;84.10;;;2.85;58.33;99430.34;4849364;28;122605;-87
2021/12/21 04:21:30;;;;;;;9.43;4.80;;;2.40;84.10;;;2.83;58.41;99431.66;4871844;28;118955;-88
2021/12/21 04:23:57;;;;;;;10.53;4.83;;;2.40;84.00;;;2.77;58.41;99424.47;4856633;28;122913;-85
2021/12/21 04:26:26;;;;;;;8.80;5.53;;;2.30;83.90;;;2.76;58.60;99430.97;4854018;29;122553;-87
2021/12/21 04:28:55;;;;;;;9.40;5.30;;;2.30;84.00;;;2.77;58.54;99429.91;4852399;28;118116;-87
2021/12/21 04:31:22;;;;;;;8.93;5.07;;;2.30;84.00;;;2.77;58.66;99428.00;4862877;28;119288;-88
2021/12/21 04:33:49;;;;;;;6.53;4.27;;;2.30;84.00;;;2.79;58.26;99431.31;4858828;28;123925;-85
2021/12/21 04:36:53;;;;;;;9.60;4.93;;;2.30;84.00;;;2.81;58.22;99428.34;4867526;28;124432;-85
2021/12/21 04:39:32;;;;;;;7.57;4.90;;;2.30;84.00;;;2.72;58.58;99433.38;4875421;28;118219;-86
2021/12/21 04:41:58;;;;;;;10.53;5.67;;;2.30;84.00;;;2.70;58.36;99426.50;4878706;28;118136;-86
2021/12/21 04:44:25;;;;;;;11.60;5.20;;;2.30;84.00;;;2.68;58.61;99432.19;4858256;29;122873;-87
2021/12/21 04:47:29;;;;;;;7.43;4.40;;;2.20;83.90;;;2.73;58.39;99436.94;4852859;28;123231;-87
2021/12/21 04:49:56;;;;;;;11.47;3.97;;;2.20;83.90;;;2.68;58.48;99434.09;4846254;29;120305;-87
2021/12/21 04:52:23;;;;;;;9.60;4.60;;;2.20;83.90;;;2.66;58.34;99426.19;4870422;28;119990;-87
2021/12/21 04:55:08;;;;;;;11.80;5.90;;;2.20;83.90;;;2.68;58.17;99431.38;4846895;29;123831;-87
2021/12/21 04:58:12;;;;;;;11.10;5.10;;;2.20;83.80;;;2.63;58.24;99421.19;4840637;29;123405;-87
2021/12/21 05:01:18;;;;;;;11.77;5.17;;;2.20;83.80;;;2.54;58.27;99419.94;4889506;28;117676;-87
2021/12/21 05:03:45;;;;;;;7.40;4.70;;;2.10;83.80;;;2.46;58.45;99420.34;4885346;28;119354;-87
2021/12/21 05:06:32;;;;;;;13.83;4.50;;;2.00;83.70;;;2.45;58.21;99419.50;4906965;28;96732;-86
2021/12/21 05:09:07;;;;;;;11.20;5.10;;;2.00;83.70;;;2.38;58.50;99419.66;4884537;28;123135;-86
2021/12/21 05:11:36;;;;;;;10.13;4.00;;;2.00;83.70;;;2.34;58.48;99423.94;4890909;28;118747;-86
2021/12/21 05:14:07;;;;;;;9.20;5.00;;;1.90;83.80;;;2.36;58.42;99429.13;4896628;28;119130;-86
2021/12/21 05:16:33;;;;;;;11.17;5.63;;;1.90;83.90;;;2.36;58.47;99419.06;4888120;28;122326;-87
2021/12/21 05:19:01;;;;;;;12.27;4.60;;;1.90;83.90;;;2.36;58.46;99418.22;4887708;28;123252;-87
2021/12/21 05:21:27;;;;;;;7.43;4.57;;;1.90;84.00;;;2.36;58.84;99421.78;4892342;28;118441;-87
2021/12/21 05:23:55;;;;;;;11.17;4.87;;;1.90;84.00;;;2.36;58.60;99415.50;4852436;28;119181;-87
2021/12/21 05:26:21;;;;;;;10.53;5.43;;;1.90;83.90;;;2.34;58.74;99420.41;4879268;28;122824;-85
2021/12/21 05:28:49;;;;;;;7.97;5.43;;;1.90;83.90;;;2.31;58.58;99415.41;4865334;28;124188;-87
2021/12/21 05:31:17;;;;;;;6.73;5.07;;;1.90;84.00;;;2.32;58.97;99409.72;4895455;28;118317;-87
2021/12/21 05:34:04;;;;;;;12.03;5.33;;;1.90;84.00;;;2.37;58.62;99406.28;4889450;28;118730;-87
2021/12/21 05:36:50;;;;;;;8.30;4.83;;;1.90;84.20;;;2.36;58.23;99418.22;4891817;28;123220;-85
2021/12/21 05:39:21;;;;;;;9.30;5.17;;;1.90;84.00;;;2.30;58.99;99411.03;4891279;28;123775;-87
2021/12/21 05:41:51;;;;;;;7.17;4.57;;;1.80;84.00;;;2.30;58.81;99409.13;4884942;28;120350;-84
2021/12/21 05:45:15;;;;;;;8.97;4.60;;;1.80;84.00;;;2.32;58.58;99400.72;4863638;28;118988;-88
2021/12/21 05:47:44;;;;;;;7.17;4.33;;;1.80;84.00;;;2.25;58.74;99402.75;4892529;28;123637;-87
2021/12/21 05:50:16;;;;;;;9.73;5.23;;;1.80;84.00;;;2.25;58.60;99402.75;4890986;28;122873;-87
2021/12/21 05:53:03;;;;;;;9.27;5.60;;;1.80;84.00;;;2.27;58.54;99404.16;4876350;28;118752;-87
2021/12/21 05:55:50;;;;;;;7.57;4.93;;;1.80;84.00;;;2.26;58.91;99398.94;4873814;28;118603;-87
2021/12/21 05:58:16;;;;;;;7.67;4.40;;;1.80;84.00;;;2.22;59.15;99404.88;4869626;28;123962;-87
2021/12/21 06:00:44;;;;;;;9.33;4.30;;;1.80;84.00;;;2.23;58.71;99394.84;4853637;28;123852;-85
2021/12/21 06:03:48;;;;;;;10.90;4.90;;;1.80;84.00;;;2.30;58.58;99397.41;4865223;28;118482;-87
2021/12/21 06:06:53;;;;;;;9.20;5.37;;;1.80;84.10;;;2.28;58.55;99403.09;4872900;28;118996;-85
2021/12/21 06:09:20;;;;;;;15.73;5.20;;;1.80;84.00;;;2.17;58.59;99407.50;4866052;28;124114;-87
2021/12/21 06:12:00;;;;;;;7.77;4.90;;;1.70;83.90;;;2.15;59.22;99415.13;4866367;28;124573;-86
2021/12/21 06:26:07;;;;;;;7.53;4.37;;;1.70;84.00;;;2.07;58.74;99410.06;4857206;28;119535;-85
2021/12/21 06:28:36;;;;;;;7.63;4.77;;;1.60;84.00;;;2.10;58.72;99414.19;4860100;28;117714;-87
2021/12/21 06:31:04;;;;;;;9.53;4.90;;;1.60;84.10;;;2.11;59.16;99408.50;4837897;29;123600;-88
2021/12/21 06:33:31;;;;;;;8.80;5.27;;;2.00;84.50;;;2.13;59.26;99406.34;4842650;29;123819;-85
2021/12/21 06:36:00;;;;;;;12.13;6.17;;;1.70;84.20;;;2.14;58.65;99402.56;4865204;28;120039;-87
2021/12/21 06:39:23;;;;;;;9.30;4.57;;;1.70;84.30;;;2.19;58.56;99399.09;4865178;28;120922;-87
2021/12/21 06:41:50;;;;;;;9.30;5.10;;;1.70;84.30;;;2.15;58.88;99406.94;4866054;28;124263;-87
2021/12/21 06:44:17;;;;;;;13.87;5.43;;;3.00;85.70;;;2.12;59.02;99410.16;4867599;28;123222;-87
2021/12/21 06:47:05;;;;;;;8.60;5.47;;;1.60;84.40;;;2.09;58.94;99410.63;4863784;28;119381;-88
2021/12/21 06:52:57;;;;;;;13.87;5.17;;;1.60;84.30;;;2.01;59.07;99408.28;4860327;28;123883;-85
2021/12/21 06:55:43;;;;;;;18.90;6.20;;;1.50;84.20;;;1.99;58.86;99405.00;4872706;28;122960;-86
2021/12/21 06:58:12;;;;;;;13.70;6.20;;;1.50;84.20;;;1.83;59.00;99394.81;4867304;28;118924;-88
2021/12/21 07:00:40;;;;;;;8.97;5.80;;;1.40;84.10;;;1.74;59.18;99391.66;4883696;28;118911;-87
2021/12/21 07:03:44;;;;;;;6.70;4.70;;;1.30;84.20;;;1.72;59.54;99404.66;4892715;28;122671;-86
2021/12/21 07:06:34;;;;;;;13.23;5.80;;;1.30;84.50;;;1.68;59.09;99407.06;4890194;28;122691;-88
2021/12/21 07:09:31;;;;;;;16.47;6.03;;;1.20;84.50;;;1.65;59.28;99399.38;4886709;28;118555;-85
2021/12/21 07:18:06;;;;;;;10.00;5.50;;;1.20;86.20;;;1.76;60.33;99416.75;4890010;28;124277;-86
2021/12/21 07:20:22;;;;;;;8.83;5.23;;;1.30;86.30;;;1.80;60.66;99409.78;4891589;28;119580;-83
2021/12/21 07:23:08;;;;;;;14.80;7.17;;;1.30;86.20;;;1.88;60.91;99416.72;4890860;28;119637;-87
2021/12/21 07:29:16;;;;;;;10.27;4.90;;;1.40;86.80;;;1.95;60.46;99420.97;4892627;28;124293;-88
2021/12/21 07:31:44;;;;;;;10.37;4.63;;;1.40;86.50;;;2.00;60.40;99422.97;4886316;28;120048;-88
2021/12/21 07:34:12;;;;;;;11.13;5.73;;;1.50;86.40;;;2.01;60.22;99424.63;4884655;28;117591;-88
2021/12/21 07:36:43;;;;;;;10.17;5.20;;;1.50;85.80;;;2.03;60.15;99429.84;4896033;28;124251;-88
2021/12/21 07:39:28;;;;;;;12.03;6.17;;;1.50;85.80;;;2.06;60.10;99432.91;4862986;28;121874;-88
2021/12/21 07:41:56;;;;;;;12.80;6.03;;;1.60;85.70;;;2.02;59.55;99430.94;4887632;28;119462;-87
2021/12/21 07:44:24;;;;;;;11.50;5.53;;;1.50;85.30;;;1.96;60.05;99443.59;4890318;28;118205;-87
2021/12/21 07:46:52;;;;;;;13.73;6.37;;;1.50;85.70;;;1.93;61.30;99434.00;4882022;28;124469;-87
2021/12/21 07:50:16;;;;;;;10.67;5.50;;;1.40;87.40;;;2.01;61.43;99440.97;4873638;28;122746;-87
2021/12/21 07:52:44;;;;;;;14.17;6.13;;;1.40;87.70;;;2.05;61.99;99442.16;4882235;28;117873;-87
2021/12/21 07:55:11;;;;;;;14.03;5.27;;;1.50;88.60;;;2.18;62.18;99451.97;4869703;28;118528;-86
2021/12/21 07:57:38;;;;;;;17.27;5.73;;;1.60;88.70;;;2.25;61.60;99449.09;4863997;28;123160;-87
2021/12/21 08:00:08;;;;;;;12.77;5.23;;;1.70;88.50;;;2.32;61.51;99455.25;4881609;28;123176;-87
2021/12/21 08:02:39;;;;;;;8.63;5.53;;;1.70;88.30;;;2.35;61.29;99450.13;4892217;28;118826;-87
2021/12/21 08:05:11;;;;;;;12.40;5.53;;;1.80;88.10;;;2.41;61.14;99440.16;4876619;28;119275;-88
2021/12/21 08:07:53;;;;;;;10.83;5.57;;;1.80;87.90;;;2.42;61.44;99441.81;4871163;28;123982;-87
2021/12/21 08:10:47;;;;;;;9.77;5.23;;;1.80;87.70;;;2.46;60.51;99442.97;4868834;28;123214;-87
2021/12/21 08:16:55;;;;;;;11.60;5.80;;;1.90;86.90;;;2.40;60.27;99461.13;4896304;28;118720;-87
2021/12/21 08:23:08;;;;;;;9.53;4.67;;;1.90;86.40;;;2.42;60.25;99452.72;4892243;28;124267;-87
2021/12/21 08:25:37;;;;;;;8.90;4.93;;;1.90;86.40;;;2.45;59.85;99445.97;4885767;28;119614;-87
2021/12/21 08:28:06;;;;;;;10.20;4.93;;;1.90;86.30;;;2.48;59.74;99449.03;4857100;28;120004;-87
2021/12/21 08:30:33;;;;;;;12.20;5.10;;;2.00;86.20;;;2.50;59.36;99448.75;4875243;28;123941;-86
2021/12/21 08:33:01;;;;;;;8.43;4.83;;;2.00;85.90;;;2.50;59.59;99444.16;4872969;28;121941;-87
2021/12/21 08:35:31;;;;;;;8.90;4.80;;;2.00;85.70;;;2.55;59.52;99452.44;4889346;28;119470;-88
2021/12/21 08:38:19;;;;;;;12.63;5.83;;;2.00;85.70;;;2.60;58.89;99449.78;4883383;28;118253;-87
2021/12/21 08:40:53;;;;;;;10.13;4.87;;;2.00;85.50;;;2.57;59.01;99453.00;4876671;28;123629;-87
2021/12/21 08:43:28;;;;;;;11.20;5.20;;;2.00;85.30;;;2.58;59.15;99456.56;4872065;28;124232;-88
2021/12/21 08:45:56;;;;;;;13.77;6.10;;;2.00;85.30;;;2.61;58.90;99467.00;4899736;28;118641;-87
2021/12/21 08:48:25;;;;;;;13.63;5.93;;;2.10;85.30;;;2.62;59.11;99452.28;4877862;28;118592;-87
2021/12/21 08:51:10;;;;;;;14.33;5.67;;;2.10;85.20;;;2.68;58.71;99455.94;4860822;28;123219;-86
2021/12/21 08:53:55;;;;;;;9.27;5.60;;;2.10;85.10;;;2.69;58.57;99458.41;4886526;28;123145;-88
2021/12/21 08:57:00;;;;;;;14.63;6.10;;;2.10;84.90;;;2.68;58.41;99455.94;4893538;28;119019;-88
2021/12/21 08:59:27;;;;;;;13.30;6.43;;;2.10;84.80;;;2.62;58.75;99447.66;4870185;28;118210;-87
2021/12/21 09:01:55;;;;;;;11.30;5.80;;;2.10;84.70;;;2.66;58.94;99442.56;4887554;28;123244;-87
2021/12/21 09:05:00;;;;;;;11.13;6.00;;;2.20;84.90;;;2.73;58.72;99450.56;4894981;28;123955;-89
2021/12/21 09:11:08;;;;;;;18.10;6.40;;;2.20;84.80;;;2.69;58.65;99436.59;4886291;28;119392;-87
2021/12/21 09:13:35;;;;;;;13.53;6.10;;;2.30;84.70;;;2.69;58.28;99436.59;4876482;28;124107;-88
2021/12/21 09:16:01;;;;;;;12.60;5.53;;;2.20;84.50;;;2.74;58.30;99444.88;4881547;28;123122;-87
2021/12/21 09:18:48;;;;;;;8.93;5.10;;;2.20;84.50;;;2.81;58.31;99439.25;4900594;28;120272;-89
2021/12/21 09:21:53;;;;;;;10.83;4.97;;;2.20;84.50;;;2.82;58.25;99440.91;4899359;28;119874;-89
2021/12/21 09:24:40;;;;;;;15.57;5.30;;;2.30;84.40;;;2.79;58.24;99441.38;4877890;28;124107;-87
2021/12/21 09:27:27;;;;;;;9.63;5.20;;;2.30;84.30;;;2.78;58.25;99439.75;4878648;28;124040;-89
2021/12/21 09:30:17;;;;;;;11.63;6.30;;;2.30;84.20;;;2.77;58.31;99446.28;4891359;28;118892;-88
2021/12/21 09:36:29;;;;;;;12.60;6.17;;;2.20;84.20;;;2.73;58.39;99436.94;4897168;28;124520;-88
2021/12/21 09:42:37;;;;;;;8.93;5.10;;;2.30;84.40;;;2.82;58.41;99440.91;4893341;28;119202;-88
2021/12/21 09:45:06;;;;;;;13.23;5.90;;;2.30;84.40;;;2.90;58.17;99431.47;4865944;28;118801;-87
2021/12/21 09:51:15;;;;;;;15.10;6.77;;;2.40;84.40;;;2.95;58.26;99440.59;4894916;28;124277;-88
2021/12/21 09:53:44;;;;;;;11.90;5.50;;;2.40;84.30;;;2.98;58.18;99445.56;4886434;28;119327;-85
2021/12/21 09:56:49;;;;;;;12.90;6.63;;;2.40;84.20;;;3.09;58.09;99443.84;4873800;28;118813;-88
2021/12/21 09:59:15;;;;;;;11.50;6.33;;;2.50;84.30;;;3.14;57.78;99441.16;4875808;28;123190;-87
2021/12/21 10:02:04;;;;;;;8.97;5.63;;;2.60;84.40;;;3.19;57.75;99435.78;4873894;28;124122;-87
2021/12/21 10:04:32;;;;;;;16.03;6.50;;;2.60;84.20;;;3.20;57.70;99436.66;4868422;28;118172;-88
2021/12/21 10:07:19;;;;;;;14.70;6.07;;;2.60;84.10;;;3.28;57.71;99428.84;4873113;28;118104;-87
2021/12/21 10:09:49;;;;;;;21.73;6.87;;;2.20;83.70;;;3.31;57.58;99430.25;4864680;28;124728;-87
2021/12/21 10:12:53;;;;;;;13.23;5.77;;;2.70;84.00;;;3.41;57.21;99415.91;4864884;28;122199;-88
2021/12/21 10:15:24;;;;;;;9.10;5.73;;;2.80;84.00;;;3.43;57.27;99422.78;4857062;28;119498;-88
2021/12/21 10:18:00;;;;;;;13.03;6.47;;;2.80;83.70;;;3.47;57.64;99417.66;4847223;28;119542;-88
2021/12/21 10:20:29;;;;;;;20.20;6.70;;;2.90;83.70;;;3.51;57.11;99427.81;4867086;28;123669;-89
2021/12/21 10:22:56;;;;;;;9.83;5.50;;;2.90;83.60;;;3.56;57.13;99420.78;4868843;28;123427;-87
2021/12/21 10:25:25;;;;;;;13.80;5.70;;;3.00;83.60;;;3.66;56.78;99418.22;4861719;28;119050;-88
2021/12/21 10:27:52;;;;;;;12.53;6.00;;;3.00;83.50;;;3.71;56.70;99415.56;4878913;28;118965;-88
2021/12/21 10:30:19;;;;;;;12.10;5.87;;;3.10;82.80;;;3.77;56.87;99406.34;4878925;28;124665;-87
2021/12/21 10:32:56;;;;;;;11.83;5.70;;;3.20;83.10;;;3.86;56.71;99402.06;4870169;28;121844;-88
2021/12/21 10:35:34;;;;;;;7.83;5.43;;;3.20;83.20;;;4.02;56.78;99407.75;4878119;28;118417;-83
2021/12/21 10:38:04;;;;;;;10.50;4.70;;;3.30;83.30;;;4.12;56.35;99405.97;4884166;28;118487;-89
2021/12/21 10:40:39;;;;;;;11.83;6.20;;;3.40;83.40;;;4.25;55.40;99388.34;4867263;28;123405;-85
2021/12/21 10:43:09;;;;;;;9.87;4.60;;;3.50;82.80;;;4.31;55.66;99392.78;4872190;28;122228;-85
2021/12/21 10:45:42;;;;;;;10.57;5.23;;;3.60;82.70;;;4.42;55.46;99389.06;4881067;28;119340;-85
2021/12/21 10:48:18;;;;;;;8.80;4.70;;;3.70;82.60;;;4.56;55.91;99388.66;4870603;28;119029;-86
2021/12/21 10:51:14;;;;;;;6.93;4.53;;;3.80;82.80;;;4.73;55.63;99394.84;4859346;28;123811;-88
2021/12/21 10:54:34;;;;;;;11.07;5.20;;;4.00;82.40;;;4.83;54.99;99388.63;4854197;28;124102;-87
2021/12/21 10:57:10;;;;;;;6.87;4.27;;;4.00;82.10;;;4.96;54.48;99381.91;4876932;28;119333;-86
2021/12/21 10:59:58;;;;;;;9.10;4.83;;;4.20;82.40;;;5.15;54.06;99379.56;4847517;28;118209;-88
2021/12/21 11:02:34;;;;;;;10.43;4.67;;;4.40;82.30;;;5.29;54.91;99375.28;4880025;28;123379;-88
2021/12/21 11:05:08;;;;;;;9.07;5.00;;;4.50;81.80;;;5.44;54.29;99372.66;4860201;28;122841;-89
2021/12/21 11:07:44;;;;;;;7.70;4.27;;;4.70;82.00;;;5.61;54.01;99368.91;4861182;28;120280;-88
2021/12/21 11:10:24;;;;;;;7.33;4.27;;;4.80;81.70;;;5.78;54.03;99365.97;4856309;28;118995;-89
2021/12/21 11:13:17;;;;;;;7.43;4.63;;;5.00;81.70;;;5.99;53.31;99367.75;4854603;28;123540;-88
2021/12/21 11:15:53;;;;;;;9.53;4.23;;;5.10;81.30;;;6.17;53.83;99369.19;4853218;29;123912;-89
2021/12/21 11:18:22;;;;;;;6.80;5.17;;;5.30;81.40;;;6.31;52.90;99362.09;4866725;28;119519;-87
2021/12/21 11:21:28;;;;;;;7.77;4.37;;;5.40;80.00;;;6.47;52.06;99362.13;4871037;28;118159;-89
2021/12/21 11:23:57;;;;;;;10.87;5.00;;;5.60;79.70;;;6.61;51.77;99349.53;4868041;28;124725;-89
2021/12/21 11:26:45;;;;;;;7.37;3.83;;;5.80;79.10;;;6.76;51.32;99351.47;4857688;28;122322;-89
2021/12/21 11:29:32;;;;;;;4.30;3.40;;;5.90;78.70;;;6.95;51.23;99346.25;4856150;28;119625;-89
2021/12/21 11:32:03;;;;;;;5.93;3.20;;;6.10;78.10;;;7.11;50.67;99349.81;4869348;28;118088;-88
2021/12/21 11:34:33;;;;;;;4.63;3.00;;;6.20;78.00;;;7.28;49.98;99340.19;4861162;28;123217;-87
2021/12/21 11:37:34;;;;;;;7.63;3.80;;;6.40;77.90;;;7.46;50.37;99343.44;4870123;28;123697;-87
2021/12/21 11:39:55;;;;;;;9.00;2.93;;;6.60;77.70;;;7.67;49.81;99324.94;4851670;28;119218;-88
2021/12/21 11:42:39;;;;;;;3.70;2.70;;;5.80;76.30;;;7.88;49.26;99322.94;4843164;28;118962;-89
2021/12/21 11:45:27;;;;;;;5.00;3.17;;;7.00;77.10;;;8.10;49.13;99331.66;4858574;28;123196;-89
2021/12/21 11:48:45;;;;;;;4.53;3.10;;;7.20;76.40;;;8.30;48.74;99327.13;4857384;28;122596;-88
2021/12/21 11:51:32;;;;;;;2.90;2.47;;;7.50;76.20;;;8.51;48.36;99333.34;4869843;28;119426;-88
2021/12/21 11:53:58;;;;;;;6.33;3.10;;;7.70;75.60;;;8.67;48.00;99332.16;4852368;28;118281;-88
2021/12/21 11:56:45;;;;;;;6.63;3.33;;;7.90;75.50;;;8.85;47.46;99325.13;4862477;28;123937;-88
2021/12/21 11:59:21;;;;;;;4.70;2.80;;;8.10;74.60;;;9.00;46.95;99318.66;4854416;28;123866;-88
2021/12/21 12:01:47;;;;;;;4.80;2.80;;;8.20;73.90;;;9.14;46.70;99316.06;4861272;28;120233;-88
2021/12/21 12:04:14;;;;;;;5.00;3.10;;;8.40;73.50;;;9.28;46.51;99315.06;4864975;28;120073;-88
2021/12/21 12:06:54;;;;;;;3.27;2.73;;;8.60;73.10;;;9.45;46.07;99309.09;4870655;28;124341;-88
2021/12/21 12:09:31;;;;;;;4.53;2.50;;;8.70;72.50;;;9.60;45.66;99305.34;4871550;28;124342;-89
2021/12/21 12:12:18;;;;;;;4.20;2.90;;;8.90;72.20;;;9.80;45.65;99303.47;4835983;29;118284;-87
2021/12/21 12:14:47;;;;;;;4.40;3.20;;;9.10;71.80;;;9.97;45.31;99309.34;4865790;28;118418;-88
2021/12/21 12:17:22;;;;;;;5.87;3.00;;;9.30;71.50;;;10.11;44.47;99304.72;4872020;28;124197;-89
2021/12/21 12:20:04;;;;;;;4.00;2.20;;;9.40;70.90;;;10.29;44.58;99311.41;4869804;28;124464;-89
2021/12/21 12:23:08;;;;;;;5.77;3.40;;;9.60;70.80;;;10.49;44.31;99310.28;4870103;28;119443;-87
2021/12/21 12:26:23;;;;;;;6.57;3.40;;;9.80;70.50;;;10.69;44.16;99320.19;4850406;28;118191;-89
2021/12/21 12:28:50;;;;;;;9.40;2.87;;;10.00;69.10;;;10.84;43.61;99306.13;4867118;28;124141;-89
2021/12/21 12:31:31;;;;;;;7.03;3.73;;;10.20;68.30;;;11.02;43.11;99304.47;4868780;28;123540;-89
2021/12/21 12:33:58;;;;;;;5.10;3.20;;;10.40;67.80;;;11.13;42.45;99302.34;4870148;28;119239;-88
2021/12/21 12:37:18;;;;;;;6.27;3.10;;;10.50;66.90;;;11.31;42.67;99308.09;4865893;28;118067;-87
2021/12/21 12:39:48;;;;;;;6.63;3.40;;;10.70;67.10;;;11.46;42.64;99300.31;4866149;28;124364;-88
2021/12/21 12:42:28;;;;;;;3.37;2.43;;;10.90;67.10;;;11.65;42.24;99289.16;4846244;28;124063;-88
2021/12/21 12:45:19;;;;;;;5.00;2.80;;;11.00;66.70;;;11.78;41.79;99290.28;4871887;28;119342;-87